Nearby METAR Reports

 

KSYN - Stanton, Minnesota, USA
Distance from station: NW 20mi, 33km
Updated: Wed, 31-Dec-1969 6:00pm CST
NOT Current
unable to load KSYN data RC=
unable to load KSYN data RC=
 
KTOB - Dodge Center, Minnesota, USA
Distance from station: SSW 21mi, 34km
Updated: Wed, 31-Dec-1969 6:00pm CST
NOT Current
unable to load KTOB data RC=
unable to load KTOB data RC=
 
 
K9MN - St Mary Hospital, Minnesota, USA
Distance from station: SSE 22mi, 35km
Updated: Wed, 31-Dec-1969 6:00pm CST
NOT Current
unable to load K9MN data RC=
unable to load K9MN data RC=
 
KRGK - Red Wing, Minnesota, USA
Distance from station: NNE 22mi, 35km
Updated: Wed, 31-Dec-1969 6:00pm CST
NOT Current
unable to load KRGK data RC=
unable to load KRGK data RC=
 
 
KRST - Rochester, Minnesota, USA
Distance from station: SSE 29mi, 47km
Updated: Fri, 14-Dec-2018 4:54pm CST
Clear
Clear
 Wind from WSW
Wind: WSW 9 mph , 15 km/h
Temperature: 27°F , -3°C
Wind Chill: 18°F , -8°C
Dew Point: 21°F , -6°C
Humidity: 80%
Barometer: 30.20 inHg , 1022.7 hPa
Clouds: Clear
Visibility: 10 miles , 16 km
2018/12/14 22:54 KRST 142254Z 25008KT 10SM CLR M03/M06 A3020 RMK AO2 SLP246 T10281056
KOWA - Owatonna, Minnesota, USA
Distance from station: WSW 31mi, 50km
Updated: Fri, 14-Dec-2018 4:57pm CST
Clear
Clear
 Wind from SSW
Wind: SSW 5 mph , 7 km/h
Temperature: 28°F , -2°C
Wind Chill: 22°F , -6°C
Dew Point: 25°F , -4°C
Humidity: 86%
Barometer: 30.20 inHg , 1022.7 hPa
Clouds: Clear
Visibility: 10 miles , 16 km
2018/12/14 22:57 KOWA 142257Z AUTO 20004KT 10SM CLR M02/M04 A3020 RMK AO2
 
KFBL - Faribault Muni, Minnesota, USA
Distance from station: W 32mi, 51km
Updated: Thu, 20-Sep-2018 6:41pm CDT
NOT Current

 Wind from SSE
Wind: SSE 18 mph , 30 km/h, Gust: 45 mph , 72 km/h
Visibility: 4 miles , 6 km
2018/09/20 23:41 KFBL 202341Z AUTO 15016G39KT 122V182 4SM +VCTSRA SCT010 BKN070 21/21 A2951 RMK AO2 P0008 LTG DSNT ALQDS
KSGS - South St Paul, Minnesota, USA
Distance from station: NNW 43mi, 69km
Updated: Fri, 14-Dec-2018 4:55pm CST
Clear
Clear
 Wind from calm
Wind: Calm
Temperature: 34°F , 1°C
Dew Point: 25°F , -4°C
Humidity: 70%
Barometer: 30.19 inHg , 1022.4 hPa
Clouds: Clear
Visibility: 10 miles , 16 km
2018/12/14 22:55 KSGS 142255Z AUTO 00000KT 10SM CLR 01/M04 A3019 RMK AO2 T00101045
 
KAUM - Austin Muni, Minnesota, USA
Distance from station: SSW 46mi, 73km
Updated: Fri, 14-Dec-2018 4:55pm CST
Clear
Clear
 Wind from calm
Wind: Calm
Temperature: 30°F , -1°C
Dew Point: 25°F , -4°C
Humidity: 80%
Barometer: 30.21 inHg , 1023 hPa
Clouds: Clear
Visibility: 10 miles , 16 km
2018/12/14 22:55 KAUM 142255Z AUTO 00000KT 10SM CLR M01/M04 A3021 RMK AO2
KACQ - Waseca, Minnesota, USA
Distance from station: WSW 46mi, 75km
Updated: Fri, 14-Dec-2018 4:55pm CST
Clear
Clear
 Wind from SSW
Wind: SSW 5 mph , 7 km/h
Temperature: 30°F , -1°C
Wind Chill: 25°F , -4°C
Dew Point: 27°F , -3°C
Humidity: 86%
Barometer: 30.21 inHg , 1023 hPa
Clouds: Clear
Visibility: 10 miles , 16 km
2018/12/14 22:55 KACQ 142255Z AUTO 20004KT 10SM CLR M01/M03 A3021 RMK AO2
 
KSTP - St. Paul, Minnesota, USA
Distance from station: NNW 47mi, 76km
Updated: Fri, 14-Dec-2018 4:53pm CST
Clear
Clear
 Wind from S
Wind: S 5 mph , 7 km/h
Temperature: 34°F , 1°C
Wind Chill: 29°F , -2°C
Dew Point: 23°F , -5°C
Humidity: 65%
Barometer: 30.21 inHg , 1023 hPa
Clouds: Clear
Visibility: 10 miles , 16 km
2018/12/14 22:53 KSTP 142253Z 19004KT 10SM CLR 01/M05 A3021 RMK AO2 SLP236 T00061050
KMSP - Minneapolis, Minnesota, USA
Distance from station: NW 49mi, 78km
Updated: Fri, 14-Dec-2018 4:53pm CST
Few Clouds
Few Clouds
 Wind from SW
Wind: SW 6 mph , 9 km/h
Temperature: 36°F , 2°C
Wind Chill: 31°F , -1°C
Dew Point: 27°F , -3°C
Humidity: 70%
Barometer: 30.19 inHg , 1022.4 hPa
Clouds: Few Clouds
Visibility: 10 miles , 16 km
Cloud details: Few Clouds 25000 ft
2018/12/14 22:53 KMSP 142253Z 22005KT 10SM FEW250 02/M03 A3019 RMK AO2 SLP235 T00221033